Terminal Aerodrome Forecast
Issued by NWS Sterling, VA

Current Version | Previous Version | Graphics & Text | Print | Product List | Glossary On
Versions: 1 2 3 4 5 6 7 8 9 10 11 12 13 14 15 16 17 18 19 20 21
000
FTUS41 KLWX 150800 AAA
TAFDCA
TAF AMD
KDCA 150846Z 1509/1606 00000KT P6SM BKN040 BKN250
     FM151200 VRB03KT P6SM FEW040 SCT250
     FM160300 17005KT P6SM BKN040=

USA.gov is the U.S. government's official web portal to all federal, state and local government web resources and services.